Time;durP1;ratioP1;P1;durP2;ratioP2;P2;SDS_P1;SDS_P2;PMS_P1;PMS_P2;Temp;Humidity;BMP_temperature;BMP_pressure;BME280_temperature;BME280_humidity;BME280_pressure;Samples;Min_cycle;Max_cycle;Signal;HPM_P1;HPM_P2
2022/08/22 00:00:15;;;;;;;9.13;2.47;;;17.00;99.90;;;;;;5041307;28;20048;-70
2022/08/22 00:02:58;;;;;;;8.35;2.70;;;16.90;99.90;;;;;;5045842;28;20040;-70
2022/08/22 00:05:38;;;;;;;8.43;3.13;;;16.90;99.90;;;;;;5044068;28;20037;-70
2022/08/22 00:08:20;;;;;;;6.32;2.83;;;16.90;99.90;;;;;;5048230;28;20056;-69
2022/08/22 00:10:55;;;;;;;7.78;2.80;;;16.90;99.90;;;;;;5047378;28;20769;-69
2022/08/22 00:13:32;;;;;;;8.00;3.03;;;16.90;99.90;;;;;;5044775;28;20495;-69
2022/08/22 00:16:02;;;;;;;6.18;2.72;;;16.90;99.90;;;;;;5048742;28;20107;-70
2022/08/22 00:18:33;;;;;;;7.95;3.35;;;16.80;99.90;;;;;;5047976;28;20506;-70
2022/08/22 00:21:09;;;;;;;6.47;2.78;;;16.80;99.90;;;;;;5032271;28;20396;-70
2022/08/22 00:23:44;;;;;;;8.23;3.10;;;16.80;99.90;;;;;;5038815;28;20452;-67
2022/08/22 00:26:44;;;;;;;9.70;3.25;;;16.80;99.90;;;;;;5044816;28;20132;-68
2022/08/22 00:29:14;;;;;;;7.65;3.30;;;16.80;99.90;;;;;;5040686;28;20287;-69
2022/08/22 00:31:44;;;;;;;11.25;3.38;;;16.70;99.90;;;;;;5045319;28;20033;-70
2022/08/22 00:34:17;;;;;;;9.15;3.22;;;16.70;99.90;;;;;;5045613;28;20036;-69
2022/08/22 00:37:06;;;;;;;9.27;3.30;;;16.70;99.90;;;;;;5047325;28;20395;-68
2022/08/22 00:39:46;;;;;;;7.57;3.03;;;16.70;99.90;;;;;;5047442;28;20472;-69
2022/08/22 00:42:35;;;;;;;8.02;3.22;;;16.60;99.90;;;;;;5041750;28;20044;-69
2022/08/22 00:45:26;;;;;;;10.25;3.75;;;16.60;99.90;;;;;;5044727;28;20044;-70
2022/08/22 00:48:29;;;;;;;10.27;3.88;;;16.60;99.90;;;;;;5035727;28;20052;-69
2022/08/22 00:51:01;;;;;;;10.45;4.05;;;16.60;99.90;;;;;;5025842;28;20459;-69
2022/08/22 00:53:54;;;;;;;10.43;4.43;;;16.50;99.90;;;;;;5039893;28;20056;-70
2022/08/22 00:56:59;;;;;;;9.82;4.45;;;16.50;99.90;;;;;;5043547;28;20132;-69
2022/08/22 00:59:36;;;;;;;8.55;4.53;;;16.40;99.90;;;;;;5020254;28;20069;-69
2022/08/22 01:02:11;;;;;;;11.27;4.43;;;16.40;99.90;;;;;;5046024;28;20045;-71
2022/08/22 01:05:21;;;;;;;8.25;4.30;;;16.40;99.90;;;;;;5041597;28;20049;-71
2022/08/22 01:08:00;;;;;;;8.60;4.32;;;16.30;99.90;;;;;;5000735;28;20115;-71
2022/08/22 01:10:35;;;;;;;12.07;3.08;;;16.40;99.90;;;;;;5036226;28;20036;-71
2022/08/22 01:13:30;;;;;;;8.40;2.90;;;16.40;99.90;;;;;;5049165;28;20148;-71
2022/08/22 01:16:07;;;;;;;9.63;3.08;;;16.40;99.90;;;;;;5046439;28;20044;-71
2022/08/22 01:18:52;;;;;;;8.20;2.60;;;16.40;99.90;;;;;;5045267;28;20036;-71
2022/08/22 01:21:58;;;;;;;7.05;3.15;;;16.30;99.90;;;;;;5028902;28;20056;-71
2022/08/22 01:25:17;;;;;;;11.07;3.15;;;16.30;99.90;;;;;;5032277;28;20056;-72
2022/08/22 01:28:21;;;;;;;6.18;2.90;;;16.30;99.90;;;;;;5054350;28;20071;-71
2022/08/22 01:31:18;;;;;;;12.85;3.50;;;16.20;99.90;;;;;;5045916;28;20104;-71
2022/08/22 01:34:12;;;;;;;9.50;3.33;;;16.20;99.90;;;;;;5040521;28;20070;-71
2022/08/22 01:37:03;;;;;;;6.45;2.78;;;16.10;99.90;;;;;;5040870;28;20623;-71
2022/08/22 01:39:41;;;;;;;8.30;3.03;;;16.10;99.90;;;;;;5039546;28;20536;-71
2022/08/22 01:42:31;;;;;;;8.55;3.03;;;16.10;99.90;;;;;;5043011;28;20362;-71
2022/08/22 01:45:24;;;;;;;8.82;3.10;;;16.10;99.90;;;;;;5042233;28;20040;-71
2022/08/22 01:48:54;;;;;;;8.93;3.10;;;16.10;99.90;;;;;;5047889;28;20400;-71
2022/08/22 01:51:26;;;;;;;8.13;3.35;;;16.00;99.90;;;;;;4987309;28;20038;-71
2022/08/22 01:54:08;;;;;;;10.07;3.15;;;16.00;99.90;;;;;;5035937;28;20037;-71
2022/08/22 01:56:42;;;;;;;11.75;3.67;;;16.00;99.90;;;;;;5043271;28;20044;-71
2022/08/22 01:59:16;;;;;;;8.50;3.33;;;16.00;99.90;;;;;;5041402;28;20226;-71
2022/08/22 02:02:19;;;;;;;6.55;3.10;;;15.90;99.90;;;;;;5059238;28;20099;-72
2022/08/22 02:04:59;;;;;;;10.05;3.53;;;15.90;99.90;;;;;;5044580;28;20504;-71
2022/08/22 02:07:40;;;;;;;12.00;3.95;;;15.90;99.90;;;;;;5064945;28;20095;-71
2022/08/22 02:10:24;;;;;;;7.85;3.63;;;15.90;99.90;;;;;;5048669;28;20120;-71
2022/08/22 02:13:09;;;;;;;7.07;4.13;;;15.90;99.90;;;;;;5049440;28;20036;-71
2022/08/22 02:16:01;;;;;;;11.82;4.80;;;15.90;99.90;;;;;;5046880;28;20067;-71
2022/08/22 02:18:40;;;;;;;11.73;4.43;;;15.90;99.90;;;;;;5010704;28;20048;-71
2022/08/22 02:21:34;;;;;;;9.68;3.90;;;15.90;99.90;;;;;;5044212;28;20184;-71
2022/08/22 02:24:13;;;;;;;8.73;3.78;;;15.90;99.90;;;;;;5041297;28;20037;-71
2022/08/22 02:26:48;;;;;;;11.32;4.20;;;15.90;99.90;;;;;;5051268;28;20523;-71
2022/08/22 02:29:28;;;;;;;11.60;3.97;;;16.00;99.90;;;;;;5044546;28;20051;-72
2022/08/22 02:32:05;;;;;;;8.88;4.05;;;16.00;99.90;;;;;;5050489;28;20042;-71
2022/08/22 02:34:53;;;;;;;11.35;4.10;;;16.00;99.90;;;;;;5048144;28;20118;-71
2022/08/22 02:37:39;;;;;;;9.75;4.40;;;16.00;99.90;;;;;;5042689;28;20049;-71
2022/08/22 02:40:21;;;;;;;11.55;3.97;;;16.10;99.90;;;;;;5047600;28;20036;-71
2022/08/22 02:42:54;;;;;;;6.38;3.47;;;16.00;99.90;;;;;;5044619;28;20044;-71
2022/08/22 02:45:43;;;;;;;9.23;3.72;;;16.00;99.90;;;;;;5049293;28;20413;-71
2022/08/22 02:48:18;;;;;;;9.02;3.72;;;16.10;99.90;;;;;;5041041;28;20037;-71
2022/08/22 02:51:02;;;;;;;11.10;3.75;;;16.00;99.90;;;;;;5050901;28;20028;-71
2022/08/22 02:53:36;;;;;;;15.05;4.22;;;16.00;99.90;;;;;;5061482;28;20108;-71
2022/08/22 02:56:09;;;;;;;;;;;16.00;99.90;;;;;;5030992;28;20348;-71
2022/08/22 02:58:54;;;;;;;11.30;3.97;;;16.00;99.90;;;;;;5046003;28;19928;-71
2022/08/22 03:01:36;;;;;;;11.57;3.78;;;16.00;99.90;;;;;;5041132;28;20052;-71
2022/08/22 03:04:20;;;;;;;11.25;4.22;;;16.00;99.90;;;;;;5040418;28;20120;-71
2022/08/22 03:07:20;;;;;;;11.13;3.58;;;16.00;99.90;;;;;;5050389;28;20036;-71
2022/08/22 03:10:17;;;;;;;10.07;3.55;;;16.10;99.90;;;;;;5041517;28;20044;-71
2022/08/22 03:12:52;;;;;;;9.60;3.85;;;16.00;99.90;;;;;;5042071;28;20431;-71
2022/08/22 03:15:42;;;;;;;10.45;3.88;;;16.10;99.90;;;;;;5036621;28;20048;-71
2022/08/22 03:18:44;;;;;;;7.57;3.65;;;16.00;99.90;;;;;;5062171;28;20037;-71
2022/08/22 03:21:20;;;;;;;10.02;3.88;;;16.10;99.90;;;;;;5046164;28;20048;-71
2022/08/22 03:23:55;;;;;;;10.68;3.72;;;16.10;99.90;;;;;;5042257;28;20376;-71
2022/08/22 03:26:50;;;;;;;10.90;3.67;;;16.10;99.90;;;;;;5047055;28;20036;-71
2022/08/22 03:29:31;;;;;;;12.48;4.07;;;16.10;99.90;;;;;;5045264;28;20833;-71
2022/08/22 03:32:16;;;;;;;10.70;3.90;;;16.10;99.90;;;;;;5032218;28;20049;-71
2022/08/22 03:34:54;;;;;;;;;;;16.20;99.90;;;;;;5045074;28;20036;-71
2022/08/22 03:37:26;;;;;;;8.77;3.33;;;16.10;99.90;;;;;;5062459;28;19923;-71
2022/08/22 03:39:58;;;;;;;11.80;3.50;;;16.10;99.90;;;;;;5043701;28;20036;-71
2022/08/22 03:43:05;;;;;;;9.65;3.92;;;16.10;99.90;;;;;;5044888;28;20123;-71
2022/08/22 03:45:34;;;;;;;11.18;4.13;;;16.10;99.90;;;;;;5048579;28;20087;-71
2022/08/22 03:48:34;;;;;;;12.52;3.85;;;16.10;99.90;;;;;;5045850;28;20038;-71
2022/08/22 03:51:00;;;;;;;12.40;4.28;;;16.10;99.90;;;;;;5050198;28;20076;-71
2022/08/22 03:53:45;;;;;;;9.45;4.10;;;16.10;99.90;;;;;;5044504;28;20044;-71
2022/08/22 03:56:36;;;;;;;9.15;3.30;;;16.10;99.90;;;;;;5045380;28;20044;-71
2022/08/22 03:59:18;;;;;;;10.20;3.70;;;16.10;99.90;;;;;;5038975;28;20052;-71
2022/08/22 04:02:21;;;;;;;8.73;3.53;;;16.10;99.90;;;;;;5042803;28;20040;-71
2022/08/22 04:05:05;;;;;;;8.20;3.58;;;16.10;99.90;;;;;;5037909;28;20041;-71
2022/08/22 04:08:00;;;;;;;11.55;3.63;;;16.00;99.90;;;;;;5049240;28;20086;-71
2022/08/22 04:10:38;;;;;;;10.98;4.18;;;16.00;99.90;;;;;;5060747;28;20114;-71
2022/08/22 04:13:36;;;;;;;9.20;3.80;;;16.00;99.90;;;;;;5044725;28;20417;-71
2022/08/22 04:16:12;;;;;;;11.77;3.63;;;15.90;99.90;;;;;;5039224;28;20393;-71
2022/08/22 04:19:16;;;;;;;11.10;3.67;;;15.90;99.90;;;;;;5043066;28;20041;-71
2022/08/22 04:22:03;;;;;;;8.90;3.75;;;15.80;99.90;;;;;;5038942;28;20044;-71
2022/08/22 04:24:56;;;;;;;9.95;4.43;;;15.80;99.90;;;;;;5038294;28;20526;-71
2022/08/22 04:27:35;;;;;;;10.55;3.88;;;15.80;99.90;;;;;;5045672;28;20041;-71
2022/08/22 04:30:16;;;;;;;12.13;6.25;;;15.70;99.90;;;;;;5045090;28;20047;-71
2022/08/22 04:33:05;;;;;;;12.27;4.85;;;15.70;99.90;;;;;;5047603;28;20051;-71
2022/08/22 04:35:38;;;;;;;14.13;4.28;;;15.70;99.90;;;;;;5042609;28;20123;-71
2022/08/22 04:38:16;;;;;;;15.95;4.90;;;15.70;99.90;;;;;;5028210;28;20043;-71
2022/08/22 04:40:57;;;;;;;10.07;4.68;;;15.70;99.90;;;;;;5045453;28;20052;-71
2022/08/22 04:43:32;;;;;;;13.57;4.53;;;15.70;99.90;;;;;;5028337;28;20143;-71
2022/08/22 04:46:31;;;;;;;10.88;4.65;;;15.70;99.90;;;;;;5040257;28;20108;-70
2022/08/22 04:49:23;;;;;;;12.43;4.57;;;15.70;99.90;;;;;;5025117;28;20170;-70
2022/08/22 04:51:58;;;;;;;12.25;3.88;;;15.70;99.90;;;;;;5027320;28;20039;-70
2022/08/22 04:54:42;;;;;;;;;;;15.70;99.90;;;;;;5044894;28;20044;-70
2022/08/22 04:57:47;;;;;;;9.38;4.40;;;15.70;99.90;;;;;;5046525;28;19920;-70
2022/08/22 05:00:15;;;;;;;14.13;4.68;;;15.70;99.90;;;;;;5044595;28;20063;-71
2022/08/22 05:02:47;;;;;;;12.98;4.70;;;15.70;99.90;;;;;;5045208;28;20503;-70
2022/08/22 05:05:51;;;;;;;11.65;4.50;;;15.80;99.90;;;;;;5048154;28;20043;-71
2022/08/22 05:08:23;;;;;;;12.05;5.30;;;15.80;99.90;;;;;;5000638;28;20053;-71
2022/08/22 05:10:50;;;;;;;26.00;14.88;;;15.90;99.90;;;;;;5045407;28;20087;-71
2022/08/22 05:13:43;;;;;;;14.07;5.20;;;15.90;99.90;;;;;;5047995;28;20049;-71
2022/08/22 05:16:23;;;;;;;12.52;4.68;;;16.00;99.90;;;;;;5044682;28;20052;-71
2022/08/22 05:19:16;;;;;;;14.63;4.60;;;16.00;99.90;;;;;;5047290;28;20056;-71
2022/08/22 05:21:45;;;;;;;12.43;4.95;;;16.10;99.90;;;;;;5047853;28;20048;-71
2022/08/22 05:24:18;;;;;;;11.68;4.53;;;16.10;99.90;;;;;;5047838;28;20485;-71
2022/08/22 05:26:48;;;;;;;14.48;5.07;;;16.20;99.90;;;;;;5049172;28;20101;-71
2022/08/22 05:29:19;;;;;;;16.13;4.90;;;16.20;99.90;;;;;;5045666;28;20349;-71
2022/08/22 05:31:56;;;;;;;15.63;4.43;;;16.30;99.90;;;;;;5049796;28;20109;-71
2022/08/22 05:34:27;;;;;;;13.02;4.40;;;16.30;99.90;;;;;;5046079;28;20053;-71
2022/08/22 05:37:04;;;;;;;14.40;4.50;;;16.40;99.90;;;;;;5048236;28;20508;-71
2022/08/22 05:39:31;;;;;;;12.93;4.68;;;16.40;99.90;;;;;;5028635;28;20581;-71
2022/08/22 05:42:01;;;;;;;13.77;4.68;;;16.50;99.90;;;;;;5052291;28;20123;-71
2022/08/22 05:44:34;;;;;;;16.83;5.03;;;16.50;99.90;;;;;;5049119;28;20032;-71
2022/08/22 05:47:20;;;;;;;10.70;4.28;;;16.50;99.90;;;;;;5069033;28;20139;-71
2022/08/22 05:50:02;;;;;;;10.43;4.22;;;16.60;99.90;;;;;;5042367;28;20528;-71
2022/08/22 05:52:58;;;;;;;16.90;7.38;;;16.60;99.90;;;;;;5033799;28;20044;-71
2022/08/22 05:55:38;;;;;;;14.82;3.95;;;16.70;99.90;;;;;;5033200;28;20435;-71
2022/08/22 05:58:18;;;;;;;11.35;3.55;;;16.60;99.90;;;;;;5049674;28;20052;-71
2022/08/22 06:00:52;;;;;;;13.45;3.88;;;16.70;99.90;;;;;;5047014;28;20044;-71
2022/08/22 06:03:42;;;;;;;9.45;3.72;;;16.70;99.90;;;;;;5031702;28;20036;-71
2022/08/22 06:06:16;;;;;;;13.10;4.32;;;16.70;99.90;;;;;;5045505;28;20123;-71
2022/08/22 06:08:52;;;;;;;11.73;3.70;;;16.70;99.90;;;;;;5035264;28;20076;-71
2022/08/22 06:11:42;;;;;;;12.15;3.90;;;16.70;99.90;;;;;;5046036;28;20040;-71
2022/08/22 06:14:24;;;;;;;11.20;4.05;;;16.70;99.90;;;;;;5047439;28;20049;-71
2022/08/22 06:17:03;;;;;;;9.93;3.28;;;16.80;99.90;;;;;;5051561;28;20488;-71
2022/08/22 06:19:29;;;;;;;12.13;4.25;;;16.80;99.90;;;;;;5048592;28;20056;-71
2022/08/22 06:21:56;;;;;;;10.80;3.90;;;16.80;99.90;;;;;;5047030;28;20281;-71
2022/08/22 06:24:26;;;;;;;8.38;3.60;;;16.80;99.90;;;;;;5047807;28;20098;-71
2022/08/22 06:26:57;;;;;;;12.43;3.60;;;16.90;99.90;;;;;;5049591;28;20067;-71
2022/08/22 06:29:52;;;;;;;9.57;4.22;;;17.00;99.90;;;;;;5048487;28;20036;-71
2022/08/22 06:32:30;;;;;;;11.20;3.72;;;17.10;99.90;;;;;;5036414;28;20064;-71
2022/08/22 06:35:03;;;;;;;12.07;3.70;;;17.10;99.90;;;;;;5047018;28;20461;-71
2022/08/22 06:37:38;;;;;;;12.13;3.97;;;17.10;99.90;;;;;;5045608;28;20052;-71
2022/08/22 06:40:07;;;;;;;10.95;4.32;;;17.10;99.90;;;;;;5050328;28;20060;-71
2022/08/22 06:42:38;;;;;;;9.88;3.85;;;17.20;99.90;;;;;;5049280;28;20672;-71
2022/08/22 06:45:15;;;;;;;10.35;4.38;;;17.20;99.90;;;;;;5047091;28;20333;-71
2022/08/22 06:47:56;;;;;;;13.38;4.18;;;17.30;99.90;;;;;;5049648;28;20410;-71
2022/08/22 06:50:33;;;;;;;12.20;4.70;;;17.30;99.90;;;;;;5047240;28;20041;-71
2022/08/22 06:53:11;;;;;;;11.68;3.90;;;17.40;99.90;;;;;;5047087;28;20036;-71
2022/08/22 06:55:40;;;;;;;12.00;4.20;;;17.40;99.90;;;;;;5061699;28;20172;-71
2022/08/22 06:58:13;;;;;;;10.32;3.65;;;17.50;99.90;;;;;;5045518;28;20059;-71
2022/08/22 07:00:41;;;;;;;15.40;3.90;;;17.50;99.90;;;;;;5048917;28;20479;-71
2022/08/22 07:03:14;;;;;;;12.65;4.10;;;17.60;99.90;;;;;;5047810;28;20092;-71
2022/08/22 07:05:41;;;;;;;12.48;3.50;;;17.60;99.90;;;;;;5051013;28;20439;-71
2022/08/22 07:08:14;;;;;;;9.82;3.83;;;17.70;99.90;;;;;;5023034;28;20053;-71
2022/08/22 07:10:43;;;;;;;10.70;3.28;;;17.70;99.90;;;;;;5046964;28;20314;-71
2022/08/22 07:13:15;;;;;;;7.45;3.38;;;17.70;99.90;;;;;;5043669;28;20165;-71
2022/08/22 07:15:42;;;;;;;12.43;3.92;;;17.70;99.90;;;;;;5048041;28;20044;-71
2022/08/22 07:18:17;;;;;;;11.23;3.55;;;17.70;99.90;;;;;;5029648;28;20119;-71
2022/08/22 07:20:51;;;;;;;10.82;3.55;;;17.80;99.90;;;;;;5051642;28;20049;-71
2022/08/22 07:23:44;;;;;;;13.05;5.38;;;17.80;99.90;;;;;;5044891;28;20060;-71
2022/08/22 07:26:19;;;;;;;12.93;4.30;;;17.80;99.90;;;;;;5065209;28;20503;-71
2022/08/22 07:28:54;;;;;;;9.80;3.38;;;17.90;99.90;;;;;;5043083;28;20090;-71
2022/08/22 07:31:48;;;;;;;12.52;3.40;;;17.90;99.90;;;;;;5031479;28;20053;-71
2022/08/22 07:34:41;;;;;;;9.48;3.20;;;18.00;99.90;;;;;;5022714;28;20056;-70
2022/08/22 07:37:21;;;;;;;13.35;3.17;;;18.10;99.90;;;;;;5067579;28;20091;-71
2022/08/22 07:39:53;;;;;;;10.65;3.42;;;18.20;99.90;;;;;;5044812;28;20043;-71
2022/08/22 07:42:38;;;;;;;13.35;3.05;;;18.30;99.90;;;;;;5041410;28;20036;-71
2022/08/22 07:45:14;;;;;;;8.77;3.00;;;18.40;99.90;;;;;;5047648;28;20484;-71
2022/08/22 07:47:52;;;;;;;11.95;3.20;;;18.50;99.90;;;;;;5052823;28;20044;-71
2022/08/22 07:50:25;;;;;;;12.07;3.33;;;18.60;99.90;;;;;;5047952;28;20047;-71
2022/08/22 07:52:53;;;;;;;10.88;3.30;;;18.70;99.90;;;;;;5049139;28;20138;-71
2022/08/22 07:55:24;;;;;;;7.88;2.97;;;18.70;99.90;;;;;;5040243;28;20048;-71
2022/08/22 07:58:00;;;;;;;13.05;3.40;;;18.80;99.90;;;;;;5041374;28;20128;-71
2022/08/22 08:00:28;;;;;;;8.90;2.72;;;18.90;99.90;;;;;;5037175;28;20102;-72
2022/08/22 08:02:57;;;;;;;9.70;3.15;;;18.90;99.90;;;;;;5041175;28;20464;-71
2022/08/22 08:05:26;;;;;;;12.00;3.00;;;19.00;99.90;;;;;;5047923;28;20116;-71
2022/08/22 08:07:55;;;;;;;13.75;3.28;;;19.00;99.90;;;;;;5046627;28;20044;-71
2022/08/22 08:10:31;;;;;;;9.35;3.50;;;19.00;99.90;;;;;;5044565;28;20044;-71
2022/08/22 08:13:05;;;;;;;9.23;3.05;;;19.00;99.90;;;;;;5044726;28;20115;-71
2022/08/22 08:15:34;;;;;;;9.63;3.08;;;19.00;99.90;;;;;;5044709;28;20070;-71
2022/08/22 08:18:07;;;;;;;19.75;3.97;;;18.90;99.90;;;;;;5036808;28;20495;-71
2022/08/22 08:20:36;;;;;;;9.30;2.92;;;19.00;99.90;;;;;;5034254;28;20131;-71
2022/08/22 08:23:05;;;;;;;11.40;3.17;;;19.00;99.90;;;;;;5040534;28;20041;-71
2022/08/22 08:25:51;;;;;;;12.48;3.33;;;19.10;99.90;;;;;;5048488;28;20115;-71
2022/08/22 08:28:33;;;;;;;11.65;2.80;;;19.10;99.90;;;;;;5043221;28;20041;-71
2022/08/22 08:31:06;;;;;;;12.50;3.33;;;19.20;99.90;;;;;;5059323;28;20063;-71
2022/08/22 08:33:34;;;;;;;12.33;3.23;;;19.20;99.90;;;;;;5045693;28;20060;-71
2022/08/22 08:36:17;;;;;;;11.93;2.75;;;19.30;99.90;;;;;;5045931;28;20050;-71
2022/08/22 08:39:09;;;;;;;10.63;2.97;;;19.30;99.90;;;;;;5048422;28;20044;-71
2022/08/22 08:41:59;;;;;;;10.80;3.40;;;19.40;99.90;;;;;;5049029;28;20515;-71
2022/08/22 08:44:49;;;;;;;12.27;3.67;;;19.50;99.90;;;;;;5048957;28;20468;-71
2022/08/22 08:47:40;;;;;;;10.77;3.00;;;19.70;99.90;;;;;;5029322;28;20071;-71
2022/08/22 08:50:44;;;;;;;11.27;2.75;;;19.90;99.90;;;;;;5031824;28;20048;-71
2022/08/22 08:53:12;;;;;;;8.85;2.53;;;20.50;99.90;;;;;;5050351;28;20044;-71
2022/08/22 08:56:16;;;;;;;9.35;2.38;;;21.20;99.90;;;;;;5050060;28;20047;-71
2022/08/22 08:59:12;;;;;;;7.15;2.33;;;22.00;99.90;;;;;;5067783;28;20059;-71
2022/08/22 09:01:41;;;;;;;9.77;2.78;;;22.60;99.90;;;;;;5051678;28;20135;-72
2022/08/22 09:04:27;;;;;;;8.23;2.55;;;22.60;99.90;;;;;;5048704;28;20542;-71
2022/08/22 09:07:11;;;;;;;7.93;2.45;;;22.70;99.90;;;;;;5052738;28;20068;-72
2022/08/22 09:09:47;;;;;;;;;;;22.80;99.90;;;;;;5062657;28;20064;-69
2022/08/22 09:12:44;;;;;;;8.43;2.28;;;22.80;99.90;;;;;;5060559;28;19925;-70
2022/08/22 09:15:37;;;;;;;9.35;2.20;;;22.80;99.90;;;;;;5064182;28;20041;-70
2022/08/22 09:18:11;;;;;;;8.73;2.38;;;22.90;99.90;;;;;;5055152;28;20094;-75
2022/08/22 09:20:41;;;;;;;10.90;2.67;;;22.90;99.90;;;;;;5065602;28;20037;-75
2022/08/22 09:23:25;;;;;;;8.85;2.45;;;22.80;99.90;;;;;;5069307;28;20106;-75
2022/08/22 09:26:03;;;;;;;9.55;2.30;;;22.60;99.90;;;;;;5063460;28;20037;-74
2022/08/22 09:28:52;;;;;;;7.60;2.30;;;22.50;99.90;;;;;;5066429;28;20883;-74
2022/08/22 09:31:39;;;;;;;10.68;2.45;;;22.60;99.90;;;;;;5043003;28;20059;-74
2022/08/22 09:34:15;;;;;;;8.55;2.17;;;22.80;99.90;;;;;;5067720;28;20040;-75
2022/08/22 09:37:18;;;;;;;7.22;2.35;;;23.00;99.90;;;;;;5047022;28;20052;-74
2022/08/22 09:40:05;;;;;;;9.00;2.03;;;23.00;99.90;;;;;;5050564;28;20102;-73
2022/08/22 09:42:40;;;;;;;10.95;2.45;;;23.10;99.90;;;;;;5046576;28;20088;-74
2022/08/22 09:45:06;;;;;;;13.02;2.92;;;23.10;99.90;;;;;;5049342;28;20480;-74
2022/08/22 09:47:44;;;;;;;9.45;2.50;;;23.20;99.90;;;;;;5048450;28;20037;-74
2022/08/22 09:50:20;;;;;;;7.45;2.08;;;23.10;99.90;;;;;;5048029;28;20564;-74
2022/08/22 09:53:07;;;;;;;9.88;2.63;;;23.00;99.90;;;;;;5067863;28;20044;-73
2022/08/22 09:55:44;;;;;;;7.20;2.83;;;23.10;99.90;;;;;;5043446;28;20401;-73
2022/08/22 09:58:47;;;;;;;10.52;2.30;;;23.10;99.90;;;;;;5055102;28;20110;-74
2022/08/22 10:01:39;;;;;;;7.35;2.47;;;23.00;99.50;;;;;;5050655;28;20522;-74
2022/08/22 10:04:32;;;;;;;7.65;2.45;;;22.90;99.90;;;;;;5043989;28;20041;-74
2022/08/22 10:07:12;;;;;;;12.93;2.33;;;22.80;99.90;;;;;;5045797;28;20550;-74
2022/08/22 10:10:16;;;;;;;11.77;2.28;;;22.80;99.90;;;;;;5049042;28;20052;-72
2022/08/22 10:12:53;;;;;;;10.90;2.03;;;22.80;99.90;;;;;;5046971;28;20049;-74
2022/08/22 10:15:28;;;;;;;8.18;2.50;;;22.80;99.90;;;;;;5052674;28;20068;-74
2022/08/22 10:18:09;;;;;;;10.68;2.25;;;22.80;99.90;;;;;;5055672;28;20052;-70
2022/08/22 10:21:07;;;;;;;10.50;2.22;;;22.70;99.90;;;;;;5079810;28;20032;-70
2022/08/22 10:23:42;;;;;;;11.80;2.13;;;22.60;99.90;;;;;;5053678;28;20040;-69
2022/08/22 10:26:16;;;;;;;7.63;1.90;;;22.50;99.90;;;;;;5076968;28;20041;-69
2022/08/22 10:28:56;;;;;;;6.50;1.67;;;22.60;99.90;;;;;;5072725;28;20041;-67
2022/08/22 10:31:28;;;;;;;7.88;1.67;;;22.70;98.80;;;;;;5068967;28;20076;-67
2022/08/22 10:34:09;;;;;;;8.95;2.70;;;22.60;98.50;;;;;;5047248;28;20127;-68
2022/08/22 10:36:57;;;;;;;10.27;2.22;;;22.50;98.50;;;;;;5065645;28;20518;-68
2022/08/22 10:39:27;;;;;;;8.65;2.10;;;22.50;98.70;;;;;;5045573;28;20045;-69
2022/08/22 10:42:11;;;;;;;8.05;2.05;;;22.60;99.20;;;;;;5050179;28;20378;-68
2022/08/22 10:44:47;;;;;;;9.23;2.45;;;22.70;98.80;;;;;;5057229;28;20045;-70
2022/08/22 10:47:22;;;;;;;7.55;2.10;;;22.80;97.90;;;;;;5041934;28;20052;-70
2022/08/22 10:49:50;;;;;;;6.65;2.03;;;23.10;97.60;;;;;;5067529;28;20060;-70
2022/08/22 10:52:30;;;;;;;8.55;2.22;;;23.30;96.80;;;;;;5067287;28;20071;-70
2022/08/22 10:55:04;;;;;;;7.43;2.08;;;23.70;97.30;;;;;;5062678;28;20138;-70
2022/08/22 10:57:34;;;;;;;;;;;24.40;97.30;;;;;;5067405;28;20037;-70
2022/08/22 11:00:07;;;;;;;9.55;2.20;;;25.40;93.60;;;;;;5041859;28;20413;-71
2022/08/22 11:02:52;;;;;;;7.75;2.17;;;26.10;94.90;;;;;;5042715;28;20060;-70
2022/08/22 11:05:53;;;;;;;6.95;2.30;;;26.50;87.70;;;;;;5042831;28;20044;-71
2022/08/22 11:08:53;;;;;;;8.32;2.03;;;26.60;83.60;;;;;;5048684;28;20121;-70
2022/08/22 11:11:40;;;;;;;9.13;2.50;;;26.80;79.40;;;;;;5046797;28;20467;-71
2022/08/22 11:14:54;;;;;;;10.80;2.22;;;26.70;79.10;;;;;;5043339;28;20041;-69
2022/08/22 11:17:45;;;;;;;6.45;2.03;;;26.60;77.80;;;;;;4961622;28;20039;-68
2022/08/22 11:20:25;;;;;;;7.53;2.30;;;26.50;76.00;;;;;;4953734;28;20398;-71
2022/08/22 11:23:19;;;;;;;8.57;2.63;;;26.50;79.10;;;;;;5020342;28;20212;-71
2022/08/22 11:26:14;;;;;;;6.43;1.70;;;26.50;76.30;;;;;;5045068;28;20132;-70
2022/08/22 11:29:07;;;;;;;6.40;2.17;;;26.30;74.50;;;;;;5018626;28;20500;-70
2022/08/22 11:32:06;;;;;;;7.63;2.03;;;26.00;72.80;;;;;;5044196;28;20044;-69
2022/08/22 11:34:40;;;;;;;7.63;1.67;;;25.80;75.70;;;;;;5028046;28;20119;-67
2022/08/22 11:37:25;;;;;;;5.50;1.40;;;25.60;74.50;;;;;;5044584;28;20048;-68
2022/08/22 11:40:21;;;;;;;6.60;1.88;;;25.70;72.70;;;;;;5042291;28;20400;-68
2022/08/22 11:43:16;;;;;;;5.25;1.42;;;25.50;72.80;;;;;;5043778;28;20508;-69
2022/08/22 11:45:47;;;;;;;8.05;1.50;;;25.50;73.20;;;;;;5042514;28;20095;-72
2022/08/22 11:48:27;;;;;;;7.43;1.40;;;25.70;76.80;;;;;;5041597;28;20029;-71
2022/08/22 11:51:07;;;;;;;7.18;1.70;;;26.30;72.90;;;;;;5043946;28;20051;-71
2022/08/22 11:53:45;;;;;;;5.13;1.52;;;26.80;72.80;;;;;;5040940;28;20041;-71
2022/08/22 11:56:42;;;;;;;8.90;1.60;;;27.30;71.20;;;;;;5046639;28;20131;-71
2022/08/22 11:59:25;;;;;;;8.05;1.80;;;28.00;68.10;;;;;;5038617;28;20056;-71
2022/08/22 12:01:58;;;;;;;8.65;1.63;;;28.60;65.40;;;;;;5061318;28;20039;-69
2022/08/22 12:04:32;;;;;;;7.32;1.70;;;28.90;64.70;;;;;;5044248;28;20120;-67
2022/08/22 12:07:30;;;;;;;7.55;1.50;;;29.00;62.30;;;;;;5060833;28;20062;-65
2022/08/22 12:10:01;;;;;;;5.22;1.88;;;29.00;59.80;;;;;;5028245;28;20495;-66
2022/08/22 12:12:52;;;;;;;7.45;2.03;;;28.80;61.80;;;;;;5041295;28;20509;-66
2022/08/22 12:15:20;;;;;;;8.70;1.92;;;29.00;60.60;;;;;;5046179;28;20107;-65
2022/08/22 12:18:16;;;;;;;7.82;1.65;;;28.90;61.10;;;;;;5062862;28;20041;-66
2022/08/22 12:20:45;;;;;;;6.80;1.65;;;29.20;59.30;;;;;;5063867;28;20508;-65
2022/08/22 12:23:10;;;;;;;4.22;1.42;;;29.40;59.90;;;;;;5061724;28;20265;-66
2022/08/22 12:25:53;;;;;;;5.70;1.60;;;29.50;60.50;;;;;;5062925;28;20649;-66
2022/08/22 12:29:00;;;;;;;5.18;1.65;;;29.60;59.10;;;;;;5061600;28;20705;-68
2022/08/22 12:31:53;;;;;;;7.63;1.80;;;29.50;59.00;;;;;;5062820;28;20043;-66
2022/08/22 12:34:33;;;;;;;7.03;1.63;;;29.70;58.20;;;;;;5066318;28;20779;-67
2022/08/22 12:37:26;;;;;;;5.63;1.50;;;29.90;58.30;;;;;;5066795;28;20048;-66
2022/08/22 12:40:24;;;;;;;6.77;1.40;;;29.90;57.80;;;;;;5064757;28;20067;-65
2022/08/22 12:43:05;;;;;;;8.13;2.00;;;29.90;59.10;;;;;;5049587;28;20512;-65
2022/08/22 12:45:59;;;;;;;8.60;1.67;;;29.60;57.70;;;;;;5059794;28;20488;-66
2022/08/22 12:48:44;;;;;;;6.10;1.73;;;29.40;58.40;;;;;;5058382;28;20040;-66
2022/08/22 12:51:54;;;;;;;5.00;2.10;;;29.10;58.30;;;;;;5064056;28;20036;-66
2022/08/22 12:55:11;;;;;;;6.00;1.45;;;28.80;58.80;;;;;;5065855;28;20051;-66
2022/08/22 12:57:37;;;;;;;4.47;1.38;;;28.30;60.00;;;;;;5045256;28;20376;-67
2022/08/22 13:00:33;;;;;;;7.55;2.10;;;28.30;60.30;;;;;;5065799;28;20704;-69
2022/08/22 13:03:04;;;;;;;5.88;1.50;;;28.50;61.10;;;;;;5053053;28;20056;-70
2022/08/22 13:05:32;;;;;;;5.50;1.38;;;28.90;61.40;;;;;;5075505;28;20036;-69
2022/08/22 13:08:05;;;;;;;4.55;1.63;;;29.40;59.20;;;;;;5069741;28;20037;-69
2022/08/22 13:10:43;;;;;;;9.68;2.17;;;29.40;57.30;;;;;;5067222;28;20083;-70
2022/08/22 13:13:37;;;;;;;5.80;1.67;;;29.20;57.30;;;;;;5064386;28;20127;-70
2022/08/22 13:16:14;;;;;;;6.18;1.50;;;29.40;57.80;;;;;;5056777;28;20044;-71
2022/08/22 13:18:48;;;;;;;7.82;1.65;;;29.40;59.60;;;;;;5058474;28;20041;-70
2022/08/22 13:21:17;;;;;;;6.68;1.70;;;29.60;58.40;;;;;;5062121;28;20044;-70
2022/08/22 13:23:49;;;;;;;6.60;1.55;;;29.50;57.40;;;;;;5060383;28;20037;-70
2022/08/22 13:26:22;;;;;;;5.68;1.52;;;28.90;57.20;;;;;;5063418;28;20206;-73
2022/08/22 13:29:01;;;;;;;10.23;1.73;;;28.10;58.00;;;;;;5061068;28;20461;-69
2022/08/22 13:31:28;;;;;;;5.63;1.60;;;27.50;59.60;;;;;;5046923;28;20053;-72
2022/08/22 13:34:32;;;;;;;5.47;1.65;;;27.20;61.40;;;;;;5033900;28;20128;-71
2022/08/22 13:37:01;;;;;;;11.07;2.10;;;27.10;63.30;;;;;;5040755;28;20058;-76
2022/08/22 13:39:34;;;;;;;6.53;1.80;;;27.10;63.00;;;;;;5039019;28;20071;-73
2022/08/22 13:42:03;;;;;;;10.55;3.75;;;27.10;63.20;;;;;;5026534;28;20091;-70
2022/08/22 13:44:39;;;;;;;8.88;2.97;;;26.90;62.50;;;;;;5058879;28;20044;-69
2022/08/22 13:47:10;;;;;;;4.72;1.67;;;26.50;63.10;;;;;;5047607;28;20367;-72
2022/08/22 13:49:43;;;;;;;5.50;1.55;;;26.30;64.10;;;;;;5059867;28;20048;-71
2022/08/22 13:52:35;;;;;;;7.35;1.60;;;26.20;64.60;;;;;;5044519;28;20057;-70
2022/08/22 13:55:24;;;;;;;6.90;2.00;;;26.20;67.20;;;;;;5059085;28;20036;-72
2022/08/22 13:58:26;;;;;;;7.82;2.30;;;26.30;64.50;;;;;;5062763;28;20122;-71